createdAt,value
2023-03-27T00:02:08.775Z,14.90
2023-03-27T00:04:35.655Z,14.84
2023-03-27T00:07:03.878Z,14.84
2023-03-27T00:09:32.724Z,14.85
2023-03-27T00:12:00.844Z,14.82
2023-03-27T00:14:27.774Z,14.82
2023-03-27T00:16:54.725Z,14.80
2023-03-27T00:19:21.495Z,14.77
2023-03-27T00:21:48.716Z,14.77
2023-03-27T00:24:15.944Z,14.77
2023-03-27T00:26:43.366Z,14.75
2023-03-27T00:29:10.745Z,14.76
2023-03-27T00:31:37.582Z,14.76
2023-03-27T00:34:04.291Z,14.74
2023-03-27T00:36:31.668Z,14.73
2023-03-27T00:38:58.329Z,14.69
2023-03-27T00:41:24.990Z,14.63
2023-03-27T00:43:54.477Z,14.64
2023-03-27T00:46:45.724Z,14.63
2023-03-27T00:49:15.158Z,14.63
2023-03-27T00:51:46.654Z,14.59
2023-03-27T00:54:18.083Z,14.62
2023-03-27T00:56:46.050Z,14.58
2023-03-27T00:59:18.223Z,14.55
2023-03-27T01:01:46.168Z,14.54
2023-03-27T01:04:13.538Z,14.54
2023-03-27T01:06:42.162Z,14.56
2023-03-27T01:09:09.721Z,14.51
2023-03-27T01:11:54.927Z,14.51
2023-03-27T01:14:32.404Z,14.50
2023-03-27T01:17:11.085Z,14.48
2023-03-27T01:19:56.964Z,14.46
2023-03-27T01:22:47.173Z,14.42
2023-03-27T01:25:22.441Z,14.43
2023-03-27T01:28:10.416Z,14.41
2023-03-27T01:31:05.722Z,14.42
2023-03-27T01:33:53.980Z,14.40
2023-03-27T01:36:27.395Z,14.40
2023-03-27T01:38:59.852Z,14.39
2023-03-27T01:41:53.370Z,14.36
2023-03-27T01:44:44.646Z,14.39
2023-03-27T01:47:15.538Z,14.34
2023-03-27T01:49:51.441Z,14.32
2023-03-27T01:52:24.443Z,14.31
2023-03-27T01:54:58.116Z,14.33
2023-03-27T01:57:28.896Z,14.25
2023-03-27T02:00:17.977Z,14.24
2023-03-27T02:02:57.080Z,14.25
2023-03-27T02:05:38.857Z,14.22
2023-03-27T02:08:26.356Z,14.23
2023-03-27T02:11:00.477Z,14.23
2023-03-27T02:13:50.310Z,14.20
2023-03-27T02:16:25.225Z,14.21
2023-03-27T02:18:58.781Z,14.17
2023-03-27T02:21:25.595Z,14.21
2023-03-27T02:23:53.006Z,14.19
2023-03-27T02:26:20.162Z,14.16
2023-03-27T02:29:38.182Z,14.16
2023-03-27T02:32:18.227Z,14.14
2023-03-27T02:35:01.508Z,14.13
2023-03-27T02:37:52.952Z,14.11
2023-03-27T02:41:03.852Z,14.09
2023-03-27T02:44:15.814Z,14.10
2023-03-27T02:47:07.700Z,14.08
2023-03-27T02:49:42.630Z,14.06
2023-03-27T02:52:33.856Z,14.09
2023-03-27T02:55:06.857Z,14.09
2023-03-27T02:57:41.904Z,14.08
2023-03-27T03:00:33.087Z,14.04
2023-03-27T03:03:49.383Z,14.08
2023-03-27T03:06:31.568Z,14.07
2023-03-27T03:09:07.253Z,14.04
2023-03-27T03:11:46.224Z,14.00
2023-03-27T03:14:13.298Z,14.00
2023-03-27T03:16:40.150Z,13.99
2023-03-27T03:19:06.807Z,13.97
2023-03-27T03:21:33.752Z,13.96
2023-03-27T03:24:01.352Z,13.96
2023-03-27T03:26:28.193Z,13.92
2023-03-27T03:29:00.964Z,13.91
2023-03-27T03:31:43.142Z,13.93
2023-03-27T03:34:16.412Z,13.93
2023-03-27T03:36:44.895Z,13.93
2023-03-27T03:39:12.786Z,13.91
2023-03-27T03:41:40.416Z,13.92
2023-03-27T03:44:07.632Z,13.89
2023-03-27T03:46:34.672Z,13.89
2023-03-27T03:49:01.765Z,13.91
2023-03-27T03:51:28.638Z,13.86
2023-03-27T03:53:55.862Z,13.87
2023-03-27T03:56:23.527Z,13.83
2023-03-27T03:58:51.503Z,13.84
2023-03-27T04:01:20.672Z,13.83
2023-03-27T04:03:51.672Z,13.83
2023-03-27T04:06:21.070Z,13.83
2023-03-27T04:08:48.512Z,13.85
2023-03-27T04:11:34.139Z,13.84
2023-03-27T04:14:23.587Z,13.77
2023-03-27T04:16:53.827Z,13.81
2023-03-27T04:19:25.851Z,13.77
2023-03-27T04:22:02.535Z,13.76
2023-03-27T04:24:32.524Z,13.76
2023-03-27T04:27:01.380Z,13.75
2023-03-27T04:30:03.828Z,13.73
2023-03-27T04:32:51.111Z,13.71
2023-03-27T04:35:37.775Z,13.72
2023-03-27T04:38:14.302Z,13.72
2023-03-27T04:40:52.393Z,13.70
2023-03-27T04:43:21.802Z,13.68
2023-03-27T04:45:49.083Z,13.68
2023-03-27T04:48:16.777Z,13.72
2023-03-27T04:50:49.544Z,13.69
2023-03-27T04:53:31.117Z,13.68
2023-03-27T04:55:59.726Z,13.65
2023-03-27T04:58:26.513Z,13.63
2023-03-27T05:00:56.368Z,13.63
2023-03-27T05:03:42.040Z,13.62
2023-03-27T05:06:18.189Z,13.61
2023-03-27T05:08:45.516Z,13.64
2023-03-27T05:11:23.135Z,13.61
2023-03-27T05:13:49.953Z,13.62
2023-03-27T05:16:20.839Z,13.59
2023-03-27T05:18:51.414Z,13.59
2023-03-27T05:21:18.159Z,13.57
2023-03-27T05:23:45.368Z,13.56
2023-03-27T05:26:14.957Z,13.58
2023-03-27T05:28:56.049Z,13.56
2023-03-27T05:31:22.959Z,13.73
2023-03-27T05:34:13.497Z,13.68
2023-03-27T05:36:41.420Z,13.64
2023-03-27T05:39:08.246Z,13.58
2023-03-27T05:41:41.262Z,13.56
2023-03-27T05:44:08.450Z,13.52
2023-03-27T05:46:40.064Z,13.53
2023-03-27T05:49:17.745Z,13.48
2023-03-27T05:51:48.944Z,13.48
2023-03-27T05:54:20.091Z,13.48
2023-03-27T05:56:55.008Z,13.45
2023-03-27T05:59:22.371Z,13.45
2023-03-27T06:01:52.090Z,13.45
2023-03-27T06:04:24.523Z,13.45
2023-03-27T06:07:05.275Z,13.44
2023-03-27T06:09:32.633Z,13.43
2023-03-27T06:12:22.651Z,13.40
2023-03-27T06:14:53.191Z,13.40
2023-03-27T06:17:36.421Z,13.54
2023-03-27T06:20:12.379Z,13.78
2023-03-27T06:22:48.656Z,13.91
2023-03-27T06:25:22.798Z,13.89
2023-03-27T06:27:51.618Z,13.86
2023-03-27T06:30:23.003Z,13.90
2023-03-27T06:33:09.725Z,13.91
2023-03-27T06:35:36.766Z,13.99
2023-03-27T06:38:16.882Z,14.03
2023-03-27T06:40:45.042Z,14.07
2023-03-27T06:43:13.453Z,14.10
2023-03-27T06:45:53.053Z,14.04
2023-03-27T06:48:43.030Z,13.92
2023-03-27T06:51:10.262Z,13.87
2023-03-27T06:53:38.305Z,13.87
2023-03-27T06:56:05.980Z,13.84
2023-03-27T06:58:52.611Z,13.82
2023-03-27T07:01:25.150Z,13.82
2023-03-27T07:04:13.199Z,13.83
2023-03-27T07:07:09.316Z,13.82
2023-03-27T07:09:40.262Z,13.78
2023-03-27T07:12:09.169Z,13.80
2023-03-27T07:14:37.863Z,13.78
2023-03-27T07:17:05.606Z,13.79
2023-03-27T07:19:55.347Z,13.69
2023-03-27T07:22:26.734Z,13.67
2023-03-27T07:24:55.342Z,13.69
2023-03-27T07:27:24.586Z,13.65
2023-03-27T07:29:54.292Z,13.62
2023-03-27T07:32:34.104Z,13.60
2023-03-27T07:35:05.319Z,13.59
2023-03-27T07:37:53.181Z,13.58
2023-03-27T07:40:40.725Z,13.58
2023-03-27T07:43:27.335Z,13.59
2023-03-27T07:45:54.269Z,13.58
2023-03-27T07:48:21.420Z,13.57
2023-03-27T07:50:48.065Z,13.56
2023-03-27T07:53:33.258Z,13.56
2023-03-27T07:56:08.742Z,13.54
2023-03-27T07:58:37.047Z,13.53
2023-03-27T08:01:04.637Z,13.55
2023-03-27T08:03:32.088Z,13.55
2023-03-27T08:06:00.518Z,13.58
2023-03-27T08:08:30.077Z,13.54
2023-03-27T08:11:00.360Z,13.53
2023-03-27T08:13:31.605Z,13.52
2023-03-27T08:16:17.154Z,13.52
2023-03-27T08:18:46.816Z,13.49
2023-03-27T08:21:14.124Z,13.49
2023-03-27T08:23:41.215Z,13.50
2023-03-27T08:26:07.922Z,13.48
2023-03-27T08:28:56.311Z,13.48
2023-03-27T08:31:27.889Z,13.46
2023-03-27T08:33:58.602Z,13.47
2023-03-27T08:36:30.005Z,13.45
2023-03-27T08:38:57.361Z,13.43
2023-03-27T08:41:38.654Z,13.43
2023-03-27T08:44:20.120Z,13.42
2023-03-27T08:46:49.790Z,13.47
2023-03-27T08:49:18.707Z,13.73
2023-03-27T08:52:15.701Z,13.87
2023-03-27T08:54:48.728Z,13.93
2023-03-27T08:57:22.643Z,14.09
2023-03-27T08:59:57.942Z,14.19
2023-03-27T09:02:37.404Z,14.33
2023-03-27T09:05:16.793Z,14.25
2023-03-27T09:08:10.699Z,14.14
2023-03-27T09:11:31.203Z,14.20
2023-03-27T09:14:06.300Z,14.34
2023-03-27T09:16:41.483Z,14.34
2023-03-27T09:19:57.912Z,14.40
2023-03-27T09:22:40.654Z,14.49
2023-03-27T09:25:28.962Z,14.50
2023-03-27T09:28:01.582Z,14.54
2023-03-27T09:30:42.324Z,14.60
2023-03-27T09:33:20.662Z,14.67
2023-03-27T09:35:48.039Z,14.71
2023-03-27T09:38:39.346Z,14.78
2023-03-27T09:41:18.696Z,14.87
2023-03-27T09:43:59.900Z,14.97
2023-03-27T09:46:28.664Z,15.05
2023-03-27T09:49:04.797Z,15.09
2023-03-27T09:51:37.765Z,15.18
2023-03-27T09:54:06.612Z,15.29
2023-03-27T09:56:41.533Z,15.35
2023-03-27T09:59:20.185Z,15.41
2023-03-27T10:01:48.905Z,15.41
2023-03-27T10:04:22.976Z,15.47
2023-03-27T10:06:56.722Z,15.51
2023-03-27T10:09:39.255Z,15.51
2023-03-27T10:12:19.581Z,15.56
2023-03-27T10:14:52.569Z,15.60
2023-03-27T10:17:30.188Z,15.62
2023-03-27T10:20:15.610Z,15.67
2023-03-27T10:23:01.016Z,15.68
2023-03-27T10:25:41.961Z,15.82
2023-03-27T10:28:24.181Z,15.94
2023-03-27T10:31:24.901Z,16.04
2023-03-27T10:33:57.832Z,16.12
2023-03-27T10:36:47.389Z,16.11
2023-03-27T10:39:17.833Z,16.16
2023-03-27T10:42:16.393Z,16.24
2023-03-27T10:44:49.338Z,16.33
2023-03-27T10:47:19.986Z,16.31
2023-03-27T10:49:51.593Z,16.30
2023-03-27T10:52:46.915Z,16.37
2023-03-27T10:55:41.561Z,16.29
2023-03-27T10:58:41.332Z,16.32
2023-03-27T11:01:21.032Z,16.35
2023-03-27T11:04:04.220Z,16.38
2023-03-27T11:06:41.837Z,16.40
2023-03-27T11:09:24.470Z,16.41
2023-03-27T11:12:10.529Z,16.42
2023-03-27T11:15:23.465Z,16.42
2023-03-27T11:18:01.521Z,16.42
2023-03-27T11:21:01.601Z,16.44
2023-03-27T11:24:03.893Z,16.45
2023-03-27T11:27:15.437Z,16.41
2023-03-27T11:30:24.722Z,16.42
2023-03-27T11:33:34.583Z,16.42
2023-03-27T11:36:33.087Z,16.44
2023-03-27T11:39:32.388Z,16.47
2023-03-27T11:42:05.238Z,16.43
2023-03-27T11:44:32.062Z,16.41
2023-03-27T11:47:13.792Z,16.43
2023-03-27T11:50:18.149Z,16.46
2023-03-27T11:53:03.474Z,16.46
2023-03-27T11:56:09.658Z,16.44
2023-03-27T11:59:08.586Z,16.44
2023-03-27T12:01:50.251Z,16.51
2023-03-27T12:04:24.859Z,16.51
2023-03-27T12:07:42.285Z,16.48
2023-03-27T12:10:38.615Z,16.49
2023-03-27T12:13:08.305Z,16.46
2023-03-27T12:15:44.751Z,16.50
2023-03-27T12:18:36.085Z,16.49
2023-03-27T12:21:15.823Z,16.45
2023-03-27T12:24:08.543Z,16.66
2023-03-27T12:26:52.987Z,16.78
2023-03-27T12:29:44.405Z,16.89
2023-03-27T12:32:42.429Z,16.92
2023-03-27T12:35:21.730Z,16.76
2023-03-27T12:38:02.156Z,16.82
2023-03-27T12:40:38.884Z,16.86
2023-03-27T12:43:29.625Z,16.79
2023-03-27T12:46:24.668Z,16.75
2023-03-27T12:49:05.483Z,16.91
2023-03-27T12:51:58.054Z,16.96
2023-03-27T12:55:21.091Z,17.05
2023-03-27T12:58:34.544Z,16.98
2023-03-27T13:01:15.251Z,16.96
2023-03-27T13:04:00.891Z,16.99
2023-03-27T13:06:43.182Z,16.99
2023-03-27T13:09:42.335Z,16.96
2023-03-27T13:12:30.984Z,17.02
2023-03-27T13:15:07.539Z,16.97
2023-03-27T13:17:50.329Z,16.95
2023-03-27T13:20:34.943Z,16.97
2023-03-27T13:23:32.182Z,16.95
2023-03-27T13:26:39.277Z,16.99
2023-03-27T13:29:21.386Z,16.97
2023-03-27T13:32:03.606Z,17.02
2023-03-27T13:35:12.663Z,17.00
2023-03-27T13:37:48.162Z,17.02
2023-03-27T13:40:44.923Z,16.99
2023-03-27T13:43:30.973Z,17.14
2023-03-27T13:46:07.883Z,17.34
2023-03-27T13:49:37.008Z,17.44
2023-03-27T13:52:20.502Z,17.55
2023-03-27T13:55:12.507Z,17.60
2023-03-27T13:58:21.832Z,17.65
2023-03-27T14:01:10.101Z,17.67
2023-03-27T14:03:41.415Z,17.63
2023-03-27T14:06:26.946Z,17.44
2023-03-27T14:09:38.459Z,17.40
2023-03-27T14:12:38.213Z,17.42
2023-03-27T14:15:43.194Z,17.36
2023-03-27T14:18:39.988Z,17.43
2023-03-27T14:21:17.925Z,17.33
2023-03-27T14:24:23.525Z,17.28
2023-03-27T14:26:56.683Z,17.30
2023-03-27T14:29:23.574Z,17.27
2023-03-27T14:31:51.489Z,17.33
2023-03-27T14:34:37.617Z,17.35
2023-03-27T14:37:28.900Z,17.28
2023-03-27T14:40:00.823Z,17.30
2023-03-27T14:42:48.161Z,17.25
2023-03-27T14:45:23.938Z,17.20
2023-03-27T14:47:57.742Z,17.25
2023-03-27T14:50:28.981Z,17.15
2023-03-27T14:52:58.004Z,17.19
2023-03-27T14:55:34.531Z,17.25
2023-03-27T14:58:22.546Z,17.26
2023-03-27T15:00:58.049Z,17.27
2023-03-27T15:03:35.511Z,17.24
2023-03-27T15:06:13.370Z,17.22
2023-03-27T15:08:52.209Z,17.21
2023-03-27T15:11:41.042Z,17.22
2023-03-27T15:14:20.757Z,17.38
2023-03-27T15:16:53.038Z,17.46
2023-03-27T15:19:23.064Z,17.57
2023-03-27T15:21:54.605Z,17.53
2023-03-27T15:24:30.056Z,17.46
2023-03-27T15:26:57.135Z,17.42
2023-03-27T15:29:48.352Z,17.44
2023-03-27T15:32:22.445Z,17.49
2023-03-27T15:34:56.863Z,17.46
2023-03-27T15:37:28.759Z,17.61
2023-03-27T15:40:31.314Z,17.70
2023-03-27T15:43:13.052Z,17.75
2023-03-27T15:46:02.097Z,17.89
2023-03-27T15:48:36.419Z,17.83
2023-03-27T15:51:06.200Z,17.73
2023-03-27T15:53:48.266Z,17.76
2023-03-27T15:56:34.187Z,17.72
2023-03-27T15:59:04.455Z,17.69
2023-03-27T16:01:53.779Z,17.63
2023-03-27T16:04:54.420Z,17.68
2023-03-27T16:07:30.362Z,17.63
2023-03-27T16:10:02.925Z,17.65
2023-03-27T16:12:39.549Z,17.55
2023-03-27T16:15:08.378Z,17.57
2023-03-27T16:17:45.325Z,17.65
2023-03-27T16:20:12.851Z,17.63
2023-03-27T16:22:40.383Z,17.60
2023-03-27T16:25:09.961Z,17.63
2023-03-27T16:27:58.577Z,17.64
2023-03-27T16:30:38.852Z,17.62
2023-03-27T16:33:15.974Z,17.50
2023-03-27T16:35:44.164Z,17.52
2023-03-27T16:38:11.904Z,17.47
2023-03-27T16:40:38.547Z,17.48
2023-03-27T16:43:05.670Z,17.49
2023-03-27T16:45:32.394Z,17.55
2023-03-27T16:47:59.172Z,17.51
2023-03-27T16:50:27.607Z,17.47
2023-03-27T16:52:54.457Z,17.45
2023-03-27T16:55:21.905Z,17.45
2023-03-27T16:57:48.738Z,17.44
2023-03-27T17:00:16.602Z,17.49
2023-03-27T17:02:44.594Z,17.51
2023-03-27T17:05:12.043Z,17.46
2023-03-27T17:07:40.582Z,17.45
2023-03-27T17:10:08.633Z,17.45
2023-03-27T17:12:35.422Z,17.50
2023-03-27T17:15:02.441Z,17.50
2023-03-27T17:17:30.626Z,17.49
2023-03-27T17:19:57.671Z,17.42
2023-03-27T17:22:26.387Z,17.36
2023-03-27T17:24:56.709Z,17.44
2023-03-27T17:27:26.598Z,17.42
2023-03-27T17:29:55.891Z,17.42
2023-03-27T17:32:24.357Z,17.36
2023-03-27T17:34:52.120Z,17.32
2023-03-27T17:37:20.099Z,17.32
2023-03-27T17:39:47.030Z,17.26
2023-03-27T17:42:13.606Z,17.25
2023-03-27T17:44:41.546Z,17.23
2023-03-27T17:47:08.728Z,17.27
2023-03-27T17:49:35.916Z,17.19
2023-03-27T17:52:07.950Z,17.22
2023-03-27T17:54:35.079Z,17.18
2023-03-27T17:57:02.379Z,17.14
2023-03-27T17:59:31.080Z,17.11
2023-03-27T18:01:58.356Z,17.15
2023-03-27T18:04:25.331Z,17.11
2023-03-27T18:06:52.638Z,17.10
2023-03-27T18:09:19.275Z,17.08
2023-03-27T18:11:47.064Z,17.05
2023-03-27T18:14:14.856Z,17.01
2023-03-27T18:16:41.575Z,17.02
2023-03-27T18:19:09.076Z,17.05
2023-03-27T18:21:36.183Z,17.04
2023-03-27T18:24:03.033Z,17.03
2023-03-27T18:26:29.893Z,17.04
2023-03-27T18:28:57.692Z,17.07
2023-03-27T18:31:24.595Z,17.06
2023-03-27T18:33:51.422Z,17.08
2023-03-27T18:36:18.101Z,17.14
2023-03-27T18:38:45.647Z,17.08
2023-03-27T18:41:13.667Z,17.03
2023-03-27T18:43:40.270Z,16.99
2023-03-27T18:46:08.277Z,17.06
2023-03-27T18:48:35.878Z,17.15
2023-03-27T18:51:05.290Z,17.26
2023-03-27T18:53:32.377Z,17.32
2023-03-27T18:55:59.652Z,17.29
2023-03-27T18:58:28.054Z,17.32
2023-03-27T19:00:58.390Z,17.34
2023-03-27T19:03:26.890Z,17.35
2023-03-27T19:05:53.618Z,17.29
2023-03-27T19:08:21.828Z,17.31
2023-03-27T19:10:49.164Z,17.39
2023-03-27T19:13:36.208Z,17.33
2023-03-27T19:16:22.549Z,17.40
2023-03-27T19:19:12.557Z,17.38
2023-03-27T19:21:59.288Z,17.22
2023-03-27T19:24:40.529Z,17.09
2023-03-27T19:27:07.474Z,17.02
2023-03-27T19:29:51.649Z,17.01
2023-03-27T19:32:18.290Z,16.95
2023-03-27T19:34:44.876Z,16.89
2023-03-27T19:37:11.632Z,16.85
2023-03-27T19:39:38.245Z,16.80
2023-03-27T19:42:05.044Z,16.76
2023-03-27T19:44:34.812Z,16.74
2023-03-27T19:47:03.688Z,16.70
2023-03-27T19:49:30.856Z,16.67
2023-03-27T19:52:30.686Z,16.64
2023-03-27T19:54:58.001Z,16.59
2023-03-27T19:57:25.195Z,16.59
2023-03-27T19:59:52.448Z,16.57
2023-03-27T20:02:19.209Z,16.55
2023-03-27T20:04:49.196Z,16.53
2023-03-27T20:07:16.040Z,16.48
2023-03-27T20:09:42.747Z,16.47
2023-03-27T20:12:11.415Z,16.46
2023-03-27T20:14:38.244Z,16.44
2023-03-27T20:17:07.989Z,16.38
2023-03-27T20:19:46.296Z,16.37
2023-03-27T20:22:13.060Z,16.33
2023-03-27T20:24:40.338Z,16.30
2023-03-27T20:27:07.089Z,16.26
2023-03-27T20:29:33.689Z,16.21
2023-03-27T20:32:00.614Z,16.18
2023-03-27T20:34:27.594Z,16.14
2023-03-27T20:36:54.749Z,16.09
2023-03-27T20:39:34.198Z,16.05
2023-03-27T20:42:00.943Z,16.03
2023-03-27T20:44:36.148Z,16.00
2023-03-27T20:47:10.693Z,15.98
2023-03-27T20:49:45.043Z,15.93
2023-03-27T20:52:15.010Z,15.90
2023-03-27T20:54:42.133Z,15.86
2023-03-27T20:57:11.839Z,15.84
2023-03-27T20:59:38.833Z,15.79
2023-03-27T21:02:05.794Z,15.78
2023-03-27T21:04:32.703Z,15.74
2023-03-27T21:06:59.689Z,15.71
2023-03-27T21:09:27.496Z,15.69
2023-03-27T21:11:55.607Z,15.62
2023-03-27T21:14:22.859Z,15.62
2023-03-27T21:16:50.028Z,15.60
2023-03-27T21:19:17.213Z,15.59
2023-03-27T21:21:44.988Z,15.56
2023-03-27T21:24:11.876Z,15.50
2023-03-27T21:26:38.670Z,15.48
2023-03-27T21:29:06.080Z,15.41
2023-03-27T21:31:33.378Z,15.38
2023-03-27T21:34:00.407Z,15.37
2023-03-27T21:36:29.483Z,15.33
2023-03-27T21:38:57.362Z,15.32
2023-03-27T21:41:25.438Z,15.30
2023-03-27T21:43:52.452Z,15.24
2023-03-27T21:46:19.118Z,15.23
2023-03-27T21:48:50.264Z,15.16
2023-03-27T21:51:16.942Z,15.16
2023-03-27T21:53:43.826Z,15.13
2023-03-27T21:56:10.585Z,15.13
2023-03-27T21:58:37.478Z,15.07
2023-03-27T22:01:04.721Z,15.08
2023-03-27T22:03:31.633Z,15.02
2023-03-27T22:06:12.214Z,15.01
2023-03-27T22:08:41.164Z,14.98
2023-03-27T22:11:08.702Z,14.99
2023-03-27T22:13:36.982Z,14.98
2023-03-27T22:16:18.624Z,14.91
2023-03-27T22:18:45.811Z,14.84
2023-03-27T22:21:12.661Z,14.83
2023-03-27T22:23:39.514Z,14.82
2023-03-27T22:26:06.506Z,14.78
2023-03-27T22:28:33.246Z,14.80
2023-03-27T22:31:00.632Z,14.77
2023-03-27T22:33:27.259Z,14.71
2023-03-27T22:35:53.958Z,14.70
2023-03-27T22:38:20.651Z,14.63
2023-03-27T22:40:47.425Z,14.63
2023-03-27T22:43:23.092Z,14.58
2023-03-27T22:45:50.796Z,14.54
2023-03-27T22:48:17.540Z,14.48
2023-03-27T22:50:45.784Z,14.51
2023-03-27T22:53:12.464Z,14.44
2023-03-27T22:55:39.196Z,14.42
2023-03-27T22:58:05.997Z,14.39
2023-03-27T23:00:32.788Z,14.40
2023-03-27T23:02:59.514Z,14.34
2023-03-27T23:05:26.265Z,14.35
2023-03-27T23:07:52.914Z,14.31
2023-03-27T23:10:19.761Z,14.26
2023-03-27T23:12:46.378Z,14.26
2023-03-27T23:15:13.164Z,14.21
2023-03-27T23:17:39.863Z,14.19
2023-03-27T23:20:06.991Z,14.17
2023-03-27T23:22:33.779Z,14.15
2023-03-27T23:25:00.461Z,14.12
2023-03-27T23:27:27.090Z,14.13
2023-03-27T23:29:53.919Z,14.08
2023-03-27T23:32:20.815Z,14.06
2023-03-27T23:34:47.656Z,14.03
2023-03-27T23:37:14.296Z,14.05
2023-03-27T23:39:41.354Z,14.02
2023-03-27T23:42:08.051Z,14.02
2023-03-27T23:44:34.645Z,13.96
2023-03-27T23:47:01.380Z,13.96
2023-03-27T23:49:28.065Z,13.96
2023-03-27T23:51:54.737Z,13.93
2023-03-27T23:54:21.535Z,13.93
2023-03-27T23:56:48.309Z,13.88
2023-03-27T23:59:14.930Z,13.85
